sensor_id;sensor_type;location;lat;lon;timestamp;P1;durP1;ratioP1;P2;durP2;ratioP2
11171;SDS011;5642;50.830;12.082;2024-01-15T00:00:29;4.40;;;3.45;;
11171;SDS011;5642;50.830;12.082;2024-01-15T00:03:15;3.15;;;2.80;;
11171;SDS011;5642;50.830;12.082;2024-01-15T00:05:43;3.33;;;2.63;;
11171;SDS011;5642;50.830;12.082;2024-01-15T00:08:11;4.28;;;3.15;;
11171;SDS011;5642;50.830;12.082;2024-01-15T00:10:39;3.72;;;2.97;;
11171;SDS011;5642;50.830;12.082;2024-01-15T00:13:07;3.33;;;2.80;;
11171;SDS011;5642;50.830;12.082;2024-01-15T00:15:38;3.17;;;2.65;;
11171;SDS011;5642;50.830;12.082;2024-01-15T00:18:06;3.08;;;2.58;;
11171;SDS011;5642;50.830;12.082;2024-01-15T00:20:33;3.55;;;3.08;;
11171;SDS011;5642;50.830;12.082;2024-01-15T00:22:59;3.88;;;2.72;;
11171;SDS011;5642;50.830;12.082;2024-01-15T00:25:26;3.40;;;2.72;;
11171;SDS011;5642;50.830;12.082;2024-01-15T00:27:53;2.88;;;2.58;;
11171;SDS011;5642;50.830;12.082;2024-01-15T00:30:19;3.42;;;2.47;;
11171;SDS011;5642;50.830;12.082;2024-01-15T00:32:45;2.97;;;2.58;;
11171;SDS011;5642;50.830;12.082;2024-01-15T00:35:27;4.07;;;2.40;;
11171;SDS011;5642;50.830;12.082;2024-01-15T00:37:53;3.15;;;2.65;;
11171;SDS011;5642;50.830;12.082;2024-01-15T00:40:21;4.30;;;2.80;;
11171;SDS011;5642;50.830;12.082;2024-01-15T00:42:47;3.13;;;2.60;;
11171;SDS011;5642;50.830;12.082;2024-01-15T00:45:14;3.20;;;2.55;;
11171;SDS011;5642;50.830;12.082;2024-01-15T00:47:58;3.53;;;2.60;;
11171;SDS011;5642;50.830;12.082;2024-01-15T00:50:26;3.33;;;2.60;;
11171;SDS011;5642;50.830;12.082;2024-01-15T00:53:00;2.70;;;2.50;;
11171;SDS011;5642;50.830;12.082;2024-01-15T00:55:27;2.90;;;2.60;;
11171;SDS011;5642;50.830;12.082;2024-01-15T00:57:58;2.85;;;2.58;;
11171;SDS011;5642;50.830;12.082;2024-01-15T01:00:24;3.17;;;2.85;;
11171;SDS011;5642;50.830;12.082;2024-01-15T01:02:50;2.65;;;2.42;;
11171;SDS011;5642;50.830;12.082;2024-01-15T01:05:17;2.58;;;2.30;;
11171;SDS011;5642;50.830;12.082;2024-01-15T01:07:44;2.97;;;2.47;;
11171;SDS011;5642;50.830;12.082;2024-01-15T01:10:22;3.05;;;2.65;;
11171;SDS011;5642;50.830;12.082;2024-01-15T01:12:49;3.03;;;2.50;;
11171;SDS011;5642;50.830;12.082;2024-01-15T01:15:15;2.50;;;2.20;;
11171;SDS011;5642;50.830;12.082;2024-01-15T01:17:42;3.00;;;2.60;;
11171;SDS011;5642;50.830;12.082;2024-01-15T01:20:09;3.42;;;2.95;;
11171;SDS011;5642;50.830;12.082;2024-01-15T01:22:36;3.20;;;2.63;;
11171;SDS011;5642;50.830;12.082;2024-01-15T01:25:02;3.05;;;2.70;;
11171;SDS011;5642;50.830;12.082;2024-01-15T01:27:29;3.72;;;2.90;;
11171;SDS011;5642;50.830;12.082;2024-01-15T01:29:55;4.38;;;3.22;;
11171;SDS011;5642;50.830;12.082;2024-01-15T01:32:21;3.90;;;3.05;;
11171;SDS011;5642;50.830;12.082;2024-01-15T01:34:47;3.42;;;2.90;;
11171;SDS011;5642;50.830;12.082;2024-01-15T01:37:14;3.53;;;2.83;;
11171;SDS011;5642;50.830;12.082;2024-01-15T01:39:40;3.03;;;2.72;;
11171;SDS011;5642;50.830;12.082;2024-01-15T01:42:08;3.85;;;3.20;;
11171;SDS011;5642;50.830;12.082;2024-01-15T01:44:34;3.17;;;2.50;;
11171;SDS011;5642;50.830;12.082;2024-01-15T01:47:00;3.13;;;2.50;;
11171;SDS011;5642;50.830;12.082;2024-01-15T01:49:28;3.10;;;2.55;;
11171;SDS011;5642;50.830;12.082;2024-01-15T01:51:59;3.03;;;2.67;;
11171;SDS011;5642;50.830;12.082;2024-01-15T01:54:28;2.90;;;2.60;;
11171;SDS011;5642;50.830;12.082;2024-01-15T01:56:58;3.45;;;2.60;;
11171;SDS011;5642;50.830;12.082;2024-01-15T01:59:25;3.25;;;2.60;;
11171;SDS011;5642;50.830;12.082;2024-01-15T02:01:55;3.00;;;2.60;;
11171;SDS011;5642;50.830;12.082;2024-01-15T02:04:22;3.70;;;2.83;;
11171;SDS011;5642;50.830;12.082;2024-01-15T02:06:51;2.95;;;2.60;;
11171;SDS011;5642;50.830;12.082;2024-01-15T02:09:18;3.53;;;3.08;;
11171;SDS011;5642;50.830;12.082;2024-01-15T02:11:47;4.25;;;3.10;;
11171;SDS011;5642;50.830;12.082;2024-01-15T02:14:14;3.45;;;2.90;;
11171;SDS011;5642;50.830;12.082;2024-01-15T02:16:40;2.80;;;2.50;;
11171;SDS011;5642;50.830;12.082;2024-01-15T02:19:14;3.95;;;3.00;;
11171;SDS011;5642;50.830;12.082;2024-01-15T02:21:44;3.63;;;2.80;;
11171;SDS011;5642;50.830;12.082;2024-01-15T02:24:11;3.33;;;2.63;;
11171;SDS011;5642;50.830;12.082;2024-01-15T02:26:40;3.55;;;3.17;;
11171;SDS011;5642;50.830;12.082;2024-01-15T02:29:07;4.80;;;3.22;;
11171;SDS011;5642;50.830;12.082;2024-01-15T02:31:36;3.95;;;3.08;;
11171;SDS011;5642;50.830;12.082;2024-01-15T02:34:14;4.22;;;3.33;;
11171;SDS011;5642;50.830;12.082;2024-01-15T02:36:41;4.30;;;3.22;;
11171;SDS011;5642;50.830;12.082;2024-01-15T02:39:08;3.58;;;2.88;;
11171;SDS011;5642;50.830;12.082;2024-01-15T02:41:34;4.43;;;3.13;;
11171;SDS011;5642;50.830;12.082;2024-01-15T02:44:04;4.55;;;3.63;;
11171;SDS011;5642;50.830;12.082;2024-01-15T02:46:30;3.95;;;3.17;;
11171;SDS011;5642;50.830;12.082;2024-01-15T02:48:56;4.05;;;3.25;;
11171;SDS011;5642;50.830;12.082;2024-01-15T02:58:57;3.85;;;2.95;;
11171;SDS011;5642;50.830;12.082;2024-01-15T03:01:23;4.85;;;3.22;;
11171;SDS011;5642;50.830;12.082;2024-01-15T03:03:51;3.08;;;2.78;;
11171;SDS011;5642;50.830;12.082;2024-01-15T03:06:17;3.95;;;3.00;;
11171;SDS011;5642;50.830;12.082;2024-01-15T03:08:43;4.22;;;3.40;;
11171;SDS011;5642;50.830;12.082;2024-01-15T03:11:10;3.35;;;2.97;;
11171;SDS011;5642;50.830;12.082;2024-01-15T03:13:37;3.78;;;2.72;;
11171;SDS011;5642;50.830;12.082;2024-01-15T03:16:05;5.18;;;3.70;;
11171;SDS011;5642;50.830;12.082;2024-01-15T03:18:32;4.60;;;3.35;;
11171;SDS011;5642;50.830;12.082;2024-01-15T03:20:58;4.85;;;3.55;;
11171;SDS011;5642;50.830;12.082;2024-01-15T03:23:27;3.58;;;2.75;;
11171;SDS011;5642;50.830;12.082;2024-01-15T03:25:53;3.60;;;3.15;;
11171;SDS011;5642;50.830;12.082;2024-01-15T03:28:23;3.72;;;3.10;;
11171;SDS011;5642;50.830;12.082;2024-01-15T03:30:52;4.75;;;3.50;;
11171;SDS011;5642;50.830;12.082;2024-01-15T03:33:18;4.65;;;3.28;;
11171;SDS011;5642;50.830;12.082;2024-01-15T03:35:46;3.75;;;3.25;;
11171;SDS011;5642;50.830;12.082;2024-01-15T03:38:12;3.50;;;3.20;;
11171;SDS011;5642;50.830;12.082;2024-01-15T03:40:38;4.13;;;2.80;;
11171;SDS011;5642;50.830;12.082;2024-01-15T03:43:08;3.03;;;2.55;;
11171;SDS011;5642;50.830;12.082;2024-01-15T03:45:34;4.32;;;3.05;;
11171;SDS011;5642;50.830;12.082;2024-01-15T03:48:01;4.55;;;3.00;;
11171;SDS011;5642;50.830;12.082;2024-01-15T03:50:30;3.53;;;2.90;;
11171;SDS011;5642;50.830;12.082;2024-01-15T03:52:57;4.57;;;3.13;;
11171;SDS011;5642;50.830;12.082;2024-01-15T03:55:23;5.05;;;3.53;;
11171;SDS011;5642;50.830;12.082;2024-01-15T03:57:49;6.03;;;3.70;;
11171;SDS011;5642;50.830;12.082;2024-01-15T04:00:16;5.25;;;4.10;;
11171;SDS011;5642;50.830;12.082;2024-01-15T04:02:45;5.32;;;3.95;;
11171;SDS011;5642;50.830;12.082;2024-01-15T04:05:11;5.40;;;3.63;;
11171;SDS011;5642;50.830;12.082;2024-01-15T04:07:37;6.93;;;4.40;;
11171;SDS011;5642;50.830;12.082;2024-01-15T04:10:04;6.53;;;4.25;;
11171;SDS011;5642;50.830;12.082;2024-01-15T04:12:30;5.45;;;4.05;;
11171;SDS011;5642;50.830;12.082;2024-01-15T04:14:56;4.82;;;3.53;;
11171;SDS011;5642;50.830;12.082;2024-01-15T04:17:26;5.30;;;4.03;;
11171;SDS011;5642;50.830;12.082;2024-01-15T04:19:58;5.50;;;3.70;;
11171;SDS011;5642;50.830;12.082;2024-01-15T04:22:28;5.80;;;3.97;;
11171;SDS011;5642;50.830;12.082;2024-01-15T04:24:57;5.60;;;4.20;;
11171;SDS011;5642;50.830;12.082;2024-01-15T04:27:23;6.03;;;4.32;;
11171;SDS011;5642;50.830;12.082;2024-01-15T04:29:51;5.97;;;4.30;;
11171;SDS011;5642;50.830;12.082;2024-01-15T04:32:18;7.50;;;5.07;;
11171;SDS011;5642;50.830;12.082;2024-01-15T04:34:45;5.20;;;4.18;;
11171;SDS011;5642;50.830;12.082;2024-01-15T04:37:15;6.25;;;3.78;;
11171;SDS011;5642;50.830;12.082;2024-01-15T04:39:41;5.43;;;4.00;;
11171;SDS011;5642;50.830;12.082;2024-01-15T04:42:08;6.22;;;4.68;;
11171;SDS011;5642;50.830;12.082;2024-01-15T04:44:48;6.30;;;4.40;;
11171;SDS011;5642;50.830;12.082;2024-01-15T04:47:18;5.45;;;4.40;;
11171;SDS011;5642;50.830;12.082;2024-01-15T04:49:45;3.88;;;3.33;;
11171;SDS011;5642;50.830;12.082;2024-01-15T04:52:12;5.30;;;3.88;;
11171;SDS011;5642;50.830;12.082;2024-01-15T04:54:39;4.25;;;3.50;;
11171;SDS011;5642;50.830;12.082;2024-01-15T04:57:06;4.00;;;3.13;;
11171;SDS011;5642;50.830;12.082;2024-01-15T04:59:33;4.10;;;3.05;;
11171;SDS011;5642;50.830;12.082;2024-01-15T05:02:00;3.70;;;2.65;;
11171;SDS011;5642;50.830;12.082;2024-01-15T05:04:44;3.90;;;2.60;;
11171;SDS011;5642;50.830;12.082;2024-01-15T05:07:17;3.45;;;2.65;;
11171;SDS011;5642;50.830;12.082;2024-01-15T05:09:45;3.33;;;2.75;;
11171;SDS011;5642;50.830;12.082;2024-01-15T05:12:27;2.70;;;2.30;;
11171;SDS011;5642;50.830;12.082;2024-01-15T05:14:53;4.10;;;2.78;;
11171;SDS011;5642;50.830;12.082;2024-01-15T05:17:38;2.97;;;2.55;;
11171;SDS011;5642;50.830;12.082;2024-01-15T05:20:04;2.55;;;2.22;;
11171;SDS011;5642;50.830;12.082;2024-01-15T05:22:31;2.88;;;2.17;;
11171;SDS011;5642;50.830;12.082;2024-01-15T05:25:12;2.53;;;2.33;;
11171;SDS011;5642;50.830;12.082;2024-01-15T05:27:48;2.55;;;2.15;;
11171;SDS011;5642;50.830;12.082;2024-01-15T05:30:18;2.08;;;1.88;;
11171;SDS011;5642;50.830;12.082;2024-01-15T05:33:01;2.58;;;2.13;;
11171;SDS011;5642;50.830;12.082;2024-01-15T05:35:31;2.40;;;2.05;;
11171;SDS011;5642;50.830;12.082;2024-01-15T05:38:11;2.80;;;2.50;;
11171;SDS011;5642;50.830;12.082;2024-01-15T05:40:38;2.78;;;2.30;;
11171;SDS011;5642;50.830;12.082;2024-01-15T05:43:07;2.65;;;2.25;;
11171;SDS011;5642;50.830;12.082;2024-01-15T05:45:37;2.42;;;2.22;;
11171;SDS011;5642;50.830;12.082;2024-01-15T05:48:07;2.92;;;2.40;;
11171;SDS011;5642;50.830;12.082;2024-01-15T05:50:35;2.70;;;2.30;;
11171;SDS011;5642;50.830;12.082;2024-01-15T05:53:13;2.97;;;2.22;;
11171;SDS011;5642;50.830;12.082;2024-01-15T05:56:11;3.08;;;2.20;;
11171;SDS011;5642;50.830;12.082;2024-01-15T05:58:48;2.47;;;2.25;;
11171;SDS011;5642;50.830;12.082;2024-01-15T06:01:16;2.80;;;2.35;;
11171;SDS011;5642;50.830;12.082;2024-01-15T06:03:43;2.15;;;1.95;;
11171;SDS011;5642;50.830;12.082;2024-01-15T06:06:11;1.90;;;1.73;;
11171;SDS011;5642;50.830;12.082;2024-01-15T06:08:41;2.10;;;1.90;;
11171;SDS011;5642;50.830;12.082;2024-01-15T06:11:08;2.10;;;1.90;;
11171;SDS011;5642;50.830;12.082;2024-01-15T06:13:47;1.95;;;1.77;;
11171;SDS011;5642;50.830;12.082;2024-01-15T06:16:24;2.20;;;1.77;;
11171;SDS011;5642;50.830;12.082;2024-01-15T06:19:02;2.13;;;1.75;;
11171;SDS011;5642;50.830;12.082;2024-01-15T06:21:47;2.15;;;1.95;;
11171;SDS011;5642;50.830;12.082;2024-01-15T06:24:32;2.25;;;1.80;;
11171;SDS011;5642;50.830;12.082;2024-01-15T06:27:21;2.33;;;2.05;;
11171;SDS011;5642;50.830;12.082;2024-01-15T06:30:06;2.40;;;1.88;;
11171;SDS011;5642;50.830;12.082;2024-01-15T06:32:51;2.20;;;1.80;;
11171;SDS011;5642;50.830;12.082;2024-01-15T06:35:19;2.10;;;1.90;;
11171;SDS011;5642;50.830;12.082;2024-01-15T06:37:46;2.30;;;2.10;;
11171;SDS011;5642;50.830;12.082;2024-01-15T06:40:13;2.65;;;2.05;;
11171;SDS011;5642;50.830;12.082;2024-01-15T06:43:03;2.10;;;1.90;;
11171;SDS011;5642;50.830;12.082;2024-01-15T06:45:45;2.20;;;1.92;;
11171;SDS011;5642;50.830;12.082;2024-01-15T06:48:24;2.30;;;2.05;;
11171;SDS011;5642;50.830;12.082;2024-01-15T06:51:23;2.50;;;2.08;;
11171;SDS011;5642;50.830;12.082;2024-01-15T06:54:09;2.35;;;1.95;;
11171;SDS011;5642;50.830;12.082;2024-01-15T06:56:57;2.50;;;2.17;;
11171;SDS011;5642;50.830;12.082;2024-01-15T06:59:36;2.80;;;2.50;;
11171;SDS011;5642;50.830;12.082;2024-01-15T07:02:20;3.38;;;2.58;;
11171;SDS011;5642;50.830;12.082;2024-01-15T07:05:04;2.35;;;1.88;;
11171;SDS011;5642;50.830;12.082;2024-01-15T07:07:32;2.70;;;2.30;;
11171;SDS011;5642;50.830;12.082;2024-01-15T07:10:19;2.38;;;1.75;;
11171;SDS011;5642;50.830;12.082;2024-01-15T07:12:46;2.17;;;1.92;;
11171;SDS011;5642;50.830;12.082;2024-01-15T07:15:13;2.53;;;2.33;;
11171;SDS011;5642;50.830;12.082;2024-01-15T07:17:59;2.38;;;2.17;;
11171;SDS011;5642;50.830;12.082;2024-01-15T07:20:28;2.35;;;2.03;;
11171;SDS011;5642;50.830;12.082;2024-01-15T07:22:57;2.50;;;2.30;;
11171;SDS011;5642;50.830;12.082;2024-01-15T07:25:24;2.00;;;1.80;;
11171;SDS011;5642;50.830;12.082;2024-01-15T07:27:55;2.95;;;1.92;;
11171;SDS011;5642;50.830;12.082;2024-01-15T07:30:50;2.40;;;2.05;;
11171;SDS011;5642;50.830;12.082;2024-01-15T07:33:18;2.42;;;2.20;;
11171;SDS011;5642;50.830;12.082;2024-01-15T07:35:46;2.33;;;2.10;;
11171;SDS011;5642;50.830;12.082;2024-01-15T07:38:19;2.35;;;2.03;;
11171;SDS011;5642;50.830;12.082;2024-01-15T07:40:46;2.35;;;2.15;;
11171;SDS011;5642;50.830;12.082;2024-01-15T07:43:20;2.45;;;2.05;;
11171;SDS011;5642;50.830;12.082;2024-01-15T07:46:01;2.25;;;1.98;;
11171;SDS011;5642;50.830;12.082;2024-01-15T07:48:28;1.70;;;1.60;;
11171;SDS011;5642;50.830;12.082;2024-01-15T07:50:57;2.20;;;1.83;;
11171;SDS011;5642;50.830;12.082;2024-01-15T07:53:24;1.67;;;1.58;;
11171;SDS011;5642;50.830;12.082;2024-01-15T07:55:51;2.08;;;1.85;;
11171;SDS011;5642;50.830;12.082;2024-01-15T07:58:23;2.00;;;1.80;;
11171;SDS011;5642;50.830;12.082;2024-01-15T08:00:55;2.00;;;1.75;;
11171;SDS011;5642;50.830;12.082;2024-01-15T08:03:25;2.80;;;2.35;;
11171;SDS011;5642;50.830;12.082;2024-01-15T08:05:58;5.35;;;4.15;;
11171;SDS011;5642;50.830;12.082;2024-01-15T08:08:43;3.65;;;2.80;;
11171;SDS011;5642;50.830;12.082;2024-01-15T08:11:19;3.58;;;2.50;;
11171;SDS011;5642;50.830;12.082;2024-01-15T08:14:05;3.35;;;2.53;;
11171;SDS011;5642;50.830;12.082;2024-01-15T08:16:47;2.85;;;2.55;;
11171;SDS011;5642;50.830;12.082;2024-01-15T08:19:22;2.45;;;2.00;;
11171;SDS011;5642;50.830;12.082;2024-01-15T08:21:49;3.05;;;2.45;;
11171;SDS011;5642;50.830;12.082;2024-01-15T08:24:34;2.08;;;1.88;;
11171;SDS011;5642;50.830;12.082;2024-01-15T08:34:39;2.10;;;1.90;;
11171;SDS011;5642;50.830;12.082;2024-01-15T08:37:26;2.28;;;1.88;;
11171;SDS011;5642;50.830;12.082;2024-01-15T08:40:29;2.80;;;1.90;;
11171;SDS011;5642;50.830;12.082;2024-01-15T08:43:32;2.60;;;2.40;;
11171;SDS011;5642;50.830;12.082;2024-01-15T08:45:59;4.75;;;3.53;;
11171;SDS011;5642;50.830;12.082;2024-01-15T08:48:49;3.47;;;2.63;;
11171;SDS011;5642;50.830;12.082;2024-01-15T08:51:33;3.20;;;2.50;;
11171;SDS011;5642;50.830;12.082;2024-01-15T08:54:00;3.20;;;2.50;;
11171;SDS011;5642;50.830;12.082;2024-01-15T08:56:34;2.13;;;1.92;;
11171;SDS011;5642;50.830;12.082;2024-01-15T08:59:01;2.72;;;2.30;;
11171;SDS011;5642;50.830;12.082;2024-01-15T09:01:28;2.53;;;2.17;;
11171;SDS011;5642;50.830;12.082;2024-01-15T09:03:55;3.20;;;2.03;;
11171;SDS011;5642;50.830;12.082;2024-01-15T09:06:45;2.40;;;2.00;;
11171;SDS011;5642;50.830;12.082;2024-01-15T09:09:18;3.35;;;2.20;;
11171;SDS011;5642;50.830;12.082;2024-01-15T09:12:05;2.47;;;2.28;;
11171;SDS011;5642;50.830;12.082;2024-01-15T09:14:36;2.78;;;1.80;;
11171;SDS011;5642;50.830;12.082;2024-01-15T09:17:05;2.15;;;1.95;;
11171;SDS011;5642;50.830;12.082;2024-01-15T09:19:34;2.45;;;1.98;;
11171;SDS011;5642;50.830;12.082;2024-01-15T09:22:19;2.05;;;1.75;;
11171;SDS011;5642;50.830;12.082;2024-01-15T09:24:46;2.30;;;1.80;;
11171;SDS011;5642;50.830;12.082;2024-01-15T09:27:19;2.55;;;2.22;;
11171;SDS011;5642;50.830;12.082;2024-01-15T09:29:51;2.20;;;1.80;;
11171;SDS011;5642;50.830;12.082;2024-01-15T09:32:23;2.47;;;2.08;;
11171;SDS011;5642;50.830;12.082;2024-01-15T09:35:05;2.58;;;2.00;;
11171;SDS011;5642;50.830;12.082;2024-01-15T09:37:34;1.70;;;1.60;;
11171;SDS011;5642;50.830;12.082;2024-01-15T09:40:13;3.63;;;2.10;;
11171;SDS011;5642;50.830;12.082;2024-01-15T09:42:50;2.15;;;1.95;;
11171;SDS011;5642;50.830;12.082;2024-01-15T09:45:29;2.60;;;2.10;;
11171;SDS011;5642;50.830;12.082;2024-01-15T09:47:57;2.95;;;2.33;;
11171;SDS011;5642;50.830;12.082;2024-01-15T09:50:31;2.92;;;2.10;;
11171;SDS011;5642;50.830;12.082;2024-01-15T09:53:02;2.30;;;1.75;;
11171;SDS011;5642;50.830;12.082;2024-01-15T09:55:49;1.98;;;1.77;;
11171;SDS011;5642;50.830;12.082;2024-01-15T09:58:18;2.55;;;2.00;;
11171;SDS011;5642;50.830;12.082;2024-01-15T10:00:45;1.92;;;1.73;;
11171;SDS011;5642;50.830;12.082;2024-01-15T10:03:41;1.80;;;1.63;;
11171;SDS011;5642;50.830;12.082;2024-01-15T10:06:11;2.15;;;1.90;;
11171;SDS011;5642;50.830;12.082;2024-01-15T10:09:17;2.00;;;1.80;;
11171;SDS011;5642;50.830;12.082;2024-01-15T10:12:13;1.85;;;1.70;;
11171;SDS011;5642;50.830;12.082;2024-01-15T10:14:41;1.92;;;1.70;;
11171;SDS011;5642;50.830;12.082;2024-01-15T10:17:14;2.50;;;1.98;;
11171;SDS011;5642;50.830;12.082;2024-01-15T10:19:59;2.17;;;1.90;;
11171;SDS011;5642;50.830;12.082;2024-01-15T10:22:29;3.05;;;2.50;;
11171;SDS011;5642;50.830;12.082;2024-01-15T10:24:56;2.00;;;1.80;;
11171;SDS011;5642;50.830;12.082;2024-01-15T10:27:33;2.45;;;1.98;;
11171;SDS011;5642;50.830;12.082;2024-01-15T10:30:17;2.10;;;1.90;;
11171;SDS011;5642;50.830;12.082;2024-01-15T10:32:44;2.55;;;2.20;;
11171;SDS011;5642;50.830;12.082;2024-01-15T10:35:27;2.63;;;2.13;;
11171;SDS011;5642;50.830;12.082;2024-01-15T10:38:04;2.65;;;2.00;;
11171;SDS011;5642;50.830;12.082;2024-01-15T10:40:32;1.83;;;1.70;;
11171;SDS011;5642;50.830;12.082;2024-01-15T10:43:09;1.75;;;1.65;;
11171;SDS011;5642;50.830;12.082;2024-01-15T10:45:37;3.15;;;1.83;;
11171;SDS011;5642;50.830;12.082;2024-01-15T10:48:10;2.13;;;1.85;;
11171;SDS011;5642;50.830;12.082;2024-01-15T10:50:46;1.67;;;1.50;;
11171;SDS011;5642;50.830;12.082;2024-01-15T10:53:21;1.65;;;1.52;;
11171;SDS011;5642;50.830;12.082;2024-01-15T10:56:10;1.98;;;1.63;;
11171;SDS011;5642;50.830;12.082;2024-01-15T10:58:43;1.70;;;1.60;;
11171;SDS011;5642;50.830;12.082;2024-01-15T11:01:19;1.63;;;1.50;;
11171;SDS011;5642;50.830;12.082;2024-01-15T11:03:54;2.05;;;1.70;;
11171;SDS011;5642;50.830;12.082;2024-01-15T11:06:29;3.13;;;2.50;;
11171;SDS011;5642;50.830;12.082;2024-01-15T11:09:16;3.05;;;2.75;;
11171;SDS011;5642;50.830;12.082;2024-01-15T11:11:47;3.70;;;3.28;;
11171;SDS011;5642;50.830;12.082;2024-01-15T11:14:41;3.65;;;3.35;;
11171;SDS011;5642;50.830;12.082;2024-01-15T11:17:12;4.30;;;3.53;;
11171;SDS011;5642;50.830;12.082;2024-01-15T11:19:44;3.15;;;2.83;;
11171;SDS011;5642;50.830;12.082;2024-01-15T11:22:47;2.78;;;1.95;;
11171;SDS011;5642;50.830;12.082;2024-01-15T11:25:16;2.28;;;2.08;;
11171;SDS011;5642;50.830;12.082;2024-01-15T11:27:46;1.73;;;1.63;;
11171;SDS011;5642;50.830;12.082;2024-01-15T11:30:24;1.88;;;1.77;;
11171;SDS011;5642;50.830;12.082;2024-01-15T11:36:07;1.95;;;1.63;;
11171;SDS011;5642;50.830;12.082;2024-01-15T11:38:56;2.00;;;1.80;;
11171;SDS011;5642;50.830;12.082;2024-01-15T11:41:48;2.03;;;1.83;;
11171;SDS011;5642;50.830;12.082;2024-01-15T11:44:16;1.83;;;1.63;;
11171;SDS011;5642;50.830;12.082;2024-01-15T11:46:50;2.10;;;1.80;;
11171;SDS011;5642;50.830;12.082;2024-01-15T11:49:54;2.10;;;1.85;;
11171;SDS011;5642;50.830;12.082;2024-01-15T11:52:36;1.88;;;1.63;;
11171;SDS011;5642;50.830;12.082;2024-01-15T11:55:19;1.67;;;1.58;;
11171;SDS011;5642;50.830;12.082;2024-01-15T11:58:17;1.70;;;1.60;;
11171;SDS011;5642;50.830;12.082;2024-01-15T12:00:44;2.60;;;1.77;;
11171;SDS011;5642;50.830;12.082;2024-01-15T12:03:27;1.90;;;1.67;;
11171;SDS011;5642;50.830;12.082;2024-01-15T12:05:56;2.05;;;1.60;;
11171;SDS011;5642;50.830;12.082;2024-01-15T12:08:39;1.65;;;1.55;;
11171;SDS011;5642;50.830;12.082;2024-01-15T12:11:07;1.77;;;1.67;;
11171;SDS011;5642;50.830;12.082;2024-01-15T12:13:58;2.50;;;1.50;;
11171;SDS011;5642;50.830;12.082;2024-01-15T12:16:31;2.15;;;1.55;;
11171;SDS011;5642;50.830;12.082;2024-01-15T12:19:06;1.85;;;1.75;;
11171;SDS011;5642;50.830;12.082;2024-01-15T12:21:33;1.80;;;1.70;;
11171;SDS011;5642;50.830;12.082;2024-01-15T12:24:22;1.60;;;1.50;;
11171;SDS011;5642;50.830;12.082;2024-01-15T12:26:48;1.50;;;1.40;;
11171;SDS011;5642;50.830;12.082;2024-01-15T12:29:22;2.08;;;1.60;;
11171;SDS011;5642;50.830;12.082;2024-01-15T12:31:50;1.60;;;1.50;;
11171;SDS011;5642;50.830;12.082;2024-01-15T12:34:31;1.80;;;1.50;;
11171;SDS011;5642;50.830;12.082;2024-01-15T12:37:00;1.73;;;1.63;;
11171;SDS011;5642;50.830;12.082;2024-01-15T12:39:39;2.55;;;1.70;;
11171;SDS011;5642;50.830;12.082;2024-01-15T12:42:30;1.95;;;1.75;;
11171;SDS011;5642;50.830;12.082;2024-01-15T12:44:58;1.77;;;1.58;;
11171;SDS011;5642;50.830;12.082;2024-01-15T12:47:38;2.00;;;1.52;;
11171;SDS011;5642;50.830;12.082;2024-01-15T12:50:09;1.52;;;1.40;;
11171;SDS011;5642;50.830;12.082;2024-01-15T12:52:40;1.40;;;1.30;;
11171;SDS011;5642;50.830;12.082;2024-01-15T12:55:10;1.50;;;1.40;;
11171;SDS011;5642;50.830;12.082;2024-01-15T12:57:49;1.83;;;1.50;;
11171;SDS011;5642;50.830;12.082;2024-01-15T13:01:02;1.65;;;1.52;;
11171;SDS011;5642;50.830;12.082;2024-01-15T13:03:49;1.80;;;1.40;;
11171;SDS011;5642;50.830;12.082;2024-01-15T13:06:20;1.98;;;1.55;;
11171;SDS011;5642;50.830;12.082;2024-01-15T13:08:47;1.77;;;1.60;;
11171;SDS011;5642;50.830;12.082;2024-01-15T13:11:16;1.85;;;1.70;;
11171;SDS011;5642;50.830;12.082;2024-01-15T13:13:46;2.00;;;1.80;;
11171;SDS011;5642;50.830;12.082;2024-01-15T13:16:17;1.40;;;1.30;;
11171;SDS011;5642;50.830;12.082;2024-01-15T13:18:45;2.13;;;1.90;;
11171;SDS011;5642;50.830;12.082;2024-01-15T13:21:12;4.32;;;3.58;;
11171;SDS011;5642;50.830;12.082;2024-01-15T13:23:43;3.13;;;2.35;;
11171;SDS011;5642;50.830;12.082;2024-01-15T13:26:13;3.20;;;2.13;;
11171;SDS011;5642;50.830;12.082;2024-01-15T13:28:40;3.10;;;1.90;;
11171;SDS011;5642;50.830;12.082;2024-01-15T13:31:22;2.00;;;1.73;;
11171;SDS011;5642;50.830;12.082;2024-01-15T13:33:52;2.47;;;2.10;;
11171;SDS011;5642;50.830;12.082;2024-01-15T13:36:21;2.60;;;1.80;;
11171;SDS011;5642;50.830;12.082;2024-01-15T13:39:06;1.80;;;1.70;;
11171;SDS011;5642;50.830;12.082;2024-01-15T13:41:36;2.28;;;2.08;;
11171;SDS011;5642;50.830;12.082;2024-01-15T13:44:05;2.10;;;1.80;;
11171;SDS011;5642;50.830;12.082;2024-01-15T13:46:51;1.98;;;1.48;;
11171;SDS011;5642;50.830;12.082;2024-01-15T13:49:34;2.00;;;1.80;;
11171;SDS011;5642;50.830;12.082;2024-01-15T13:52:13;1.75;;;1.65;;
11171;SDS011;5642;50.830;12.082;2024-01-15T13:54:42;1.83;;;1.73;;
11171;SDS011;5642;50.830;12.082;2024-01-15T13:57:09;2.55;;;2.03;;
11171;SDS011;5642;50.830;12.082;2024-01-15T13:59:54;2.22;;;2.03;;
11171;SDS011;5642;50.830;12.082;2024-01-15T14:02:27;1.70;;;1.60;;
11171;SDS011;5642;50.830;12.082;2024-01-15T14:04:56;3.00;;;2.30;;
11171;SDS011;5642;50.830;12.082;2024-01-15T14:07:45;2.05;;;1.85;;
11171;SDS011;5642;50.830;12.082;2024-01-15T14:10:15;2.17;;;1.90;;
11171;SDS011;5642;50.830;12.082;2024-01-15T14:12:48;2.15;;;1.95;;
11171;SDS011;5642;50.830;12.082;2024-01-15T14:15:16;2.72;;;2.03;;
11171;SDS011;5642;50.830;12.082;2024-01-15T14:17:52;2.03;;;1.70;;
11171;SDS011;5642;50.830;12.082;2024-01-15T14:20:38;2.08;;;1.75;;
11171;SDS011;5642;50.830;12.082;2024-01-15T14:23:29;1.70;;;1.60;;
11171;SDS011;5642;50.830;12.082;2024-01-15T14:26:00;2.20;;;1.70;;
11171;SDS011;5642;50.830;12.082;2024-01-15T14:28:36;1.67;;;1.58;;
11171;SDS011;5642;50.830;12.082;2024-01-15T14:31:11;1.75;;;1.63;;
11171;SDS011;5642;50.830;12.082;2024-01-15T14:33:41;1.77;;;1.60;;
11171;SDS011;5642;50.830;12.082;2024-01-15T14:36:11;2.03;;;1.73;;
11171;SDS011;5642;50.830;12.082;2024-01-15T14:38:38;1.70;;;1.60;;
11171;SDS011;5642;50.830;12.082;2024-01-15T14:41:05;1.83;;;1.50;;
11171;SDS011;5642;50.830;12.082;2024-01-15T14:43:34;1.73;;;1.60;;
11171;SDS011;5642;50.830;12.082;2024-01-15T14:46:04;2.00;;;1.85;;
11171;SDS011;5642;50.830;12.082;2024-01-15T14:48:33;1.98;;;1.67;;
11171;SDS011;5642;50.830;12.082;2024-01-15T14:50:59;1.80;;;1.63;;
11171;SDS011;5642;50.830;12.082;2024-01-15T14:53:29;2.00;;;1.70;;
11171;SDS011;5642;50.830;12.082;2024-01-15T14:55:56;2.10;;;1.80;;
11171;SDS011;5642;50.830;12.082;2024-01-15T14:58:25;1.80;;;1.70;;
11171;SDS011;5642;50.830;12.082;2024-01-15T15:00:53;1.75;;;1.65;;
11171;SDS011;5642;50.830;12.082;2024-01-15T15:03:25;2.15;;;1.85;;
11171;SDS011;5642;50.830;12.082;2024-01-15T15:05:53;1.98;;;1.83;;
11171;SDS011;5642;50.830;12.082;2024-01-15T15:08:22;1.77;;;1.67;;
11171;SDS011;5642;50.830;12.082;2024-01-15T15:10:49;2.20;;;2.00;;
11171;SDS011;5642;50.830;12.082;2024-01-15T15:13:17;2.20;;;1.90;;
11171;SDS011;5642;50.830;12.082;2024-01-15T15:15:46;2.13;;;1.90;;
11171;SDS011;5642;50.830;12.082;2024-01-15T15:18:14;2.60;;;2.00;;
11171;SDS011;5642;50.830;12.082;2024-01-15T15:20:44;1.73;;;1.60;;
11171;SDS011;5642;50.830;12.082;2024-01-15T15:23:17;2.10;;;1.90;;
11171;SDS011;5642;50.830;12.082;2024-01-15T15:25:45;2.03;;;1.80;;
11171;SDS011;5642;50.830;12.082;2024-01-15T15:28:11;1.98;;;1.80;;
11171;SDS011;5642;50.830;12.082;2024-01-15T15:30:40;1.95;;;1.77;;
11171;SDS011;5642;50.830;12.082;2024-01-15T15:33:07;2.55;;;2.20;;
11171;SDS011;5642;50.830;12.082;2024-01-15T15:35:39;1.67;;;1.58;;
11171;SDS011;5642;50.830;12.082;2024-01-15T15:38:06;1.80;;;1.70;;
11171;SDS011;5642;50.830;12.082;2024-01-15T15:40:34;2.08;;;1.88;;